Time;durP1;ratioP1;P1;durP2;ratioP2;P2;SDS_P1;SDS_P2;PMS_P1;PMS_P2;Temp;Humidity;BMP_temperature;BMP_pressure;BME280_temperature;BME280_humidity;BME280_pressure;Samples;Min_cycle;Max_cycle;Signal;HPM_P1;HPM_P2
2023/06/22 00:00:55;;;;;;;13.40;2.40;;;;;;;;;;5051464;28;20086;-45
2023/06/22 00:03:24;;;;;;;10.75;2.83;;;;;;;;;;5054047;28;20079;-45
2023/06/22 00:05:51;;;;;;;12.32;2.00;;;;;;;;;;5051478;28;20104;-46
2023/06/22 00:08:19;;;;;;;13.95;2.67;;;;;;;;;;5054054;28;20020;-48
2023/06/22 00:10:46;;;;;;;13.98;2.95;;;;;;;;;;5053994;28;20025;-46
2023/06/22 00:13:14;;;;;;;11.20;2.47;;;;;;;;;;5035123;28;20542;-44
2023/06/22 00:15:41;;;;;;;10.02;2.45;;;;;;;;;;5053934;28;20029;-45
2023/06/22 00:18:09;;;;;;;11.82;2.40;;;;;;;;;;5053945;28;20040;-45
2023/06/22 00:20:37;;;;;;;7.43;2.08;;;;;;;;;;5053879;28;20029;-45
2023/06/22 00:23:08;;;;;;;7.63;1.92;;;;;;;;;;5053362;28;20059;-45
2023/06/22 00:25:36;;;;;;;12.38;1.92;;;;;;;;;;5053889;28;20490;-45
2023/06/22 00:28:03;;;;;;;9.07;2.10;;;;;;;;;;5050515;28;20057;-44
2023/06/22 00:30:31;;;;;;;9.23;2.17;;;;;;;;;;5049971;28;20074;-45
2023/06/22 00:32:59;;;;;;;12.90;2.50;;;;;;;;;;5053346;28;20024;-46
2023/06/22 00:35:29;;;;;;;9.70;2.17;;;;;;;;;;5050384;28;20029;-45
2023/06/22 00:38:03;;;;;;;9.50;2.35;;;;;;;;;;5053427;28;20044;-45
2023/06/22 00:40:31;;;;;;;11.68;1.95;;;;;;;;;;5053321;28;20087;-44
2023/06/22 00:42:58;;;;;;;9.57;2.17;;;;;;;;;;5053278;28;20024;-45
2023/06/22 00:45:25;;;;;;;10.45;2.50;;;;;;;;;;5053288;28;20060;-45
2023/06/22 00:47:53;;;;;;;10.35;2.47;;;;;;;;;;5053325;28;20494;-44
2023/06/22 00:50:22;;;;;;;18.90;2.25;;;;;;;;;;5053304;28;20025;-44
2023/06/22 00:52:53;;;;;;;10.18;1.95;;;;;;;;;;5053205;28;20103;-45
2023/06/22 00:55:21;;;;;;;11.10;2.28;;;;;;;;;;5051801;28;20028;-45
2023/06/22 00:57:49;;;;;;;10.55;2.72;;;;;;;;;;5053054;28;20131;-45
2023/06/22 01:00:20;;;;;;;11.57;2.70;;;;;;;;;;5053074;28;20513;-47
2023/06/22 01:02:51;;;;;;;12.88;2.95;;;;;;;;;;5050858;28;20041;-45
2023/06/22 01:05:22;;;;;;;16.45;3.30;;;;;;;;;;5051204;28;20592;-47
2023/06/22 01:07:49;;;;;;;13.10;3.35;;;;;;;;;;5051047;28;20021;-45
2023/06/22 01:10:19;;;;;;;18.52;3.60;;;;;;;;;;5051535;28;20104;-45
2023/06/22 01:12:49;;;;;;;16.92;3.83;;;;;;;;;;5050744;28;20032;-45
2023/06/22 01:15:26;;;;;;;21.70;5.30;;;;;;;;;;5052803;28;20032;-44
2023/06/22 01:17:53;;;;;;;24.95;5.95;;;;;;;;;;5032967;28;20120;-45
2023/06/22 01:20:21;;;;;;;24.10;6.55;;;;;;;;;;5052616;28;20525;-45
2023/06/22 01:23:00;;;;;;;30.95;7.15;;;;;;;;;;5050080;28;20033;-46
2023/06/22 01:25:35;;;;;;;31.17;8.30;;;;;;;;;;5050051;28;20025;-47
2023/06/22 01:28:17;;;;;;;25.08;8.55;;;;;;;;;;5052520;28;20024;-45
2023/06/22 01:30:46;;;;;;;29.13;9.70;;;;;;;;;;5052540;28;20032;-45
2023/06/22 01:33:14;;;;;;;34.60;9.88;;;;;;;;;;5052391;28;20021;-45
2023/06/22 01:35:41;;;;;;;29.02;9.52;;;;;;;;;;5052416;28;20024;-45
2023/06/22 01:38:09;;;;;;;25.42;9.07;;;;;;;;;;5049983;28;20045;-45
2023/06/22 01:40:37;;;;;;;27.90;9.18;;;;;;;;;;5052254;28;20090;-45
2023/06/22 01:43:04;;;;;;;30.73;9.98;;;;;;;;;;5052249;28;20025;-47
2023/06/22 01:45:32;;;;;;;28.05;8.95;;;;;;;;;;5040814;28;20502;-46
2023/06/22 01:47:59;;;;;;;28.63;8.55;;;;;;;;;;5033013;28;20025;-45
2023/06/22 01:50:26;;;;;;;27.63;9.30;;;;;;;;;;5030069;28;20466;-48
2023/06/22 01:52:53;;;;;;;28.83;8.68;;;;;;;;;;5034439;28;20032;-45
2023/06/22 01:55:20;;;;;;;26.60;9.02;;;;;;;;;;5047780;28;20483;-45
2023/06/22 01:57:47;;;;;;;31.45;9.05;;;;;;;;;;5040693;28;20041;-45
2023/06/22 02:00:17;;;;;;;26.27;8.27;;;;;;;;;;5050618;28;20479;-46
2023/06/22 02:02:47;;;;;;;25.85;8.35;;;;;;;;;;5039154;28;20537;-45
2023/06/22 02:05:17;;;;;;;41.00;8.65;;;;;;;;;;5032260;28;20037;-45
2023/06/22 02:07:50;;;;;;;48.88;9.80;;;;;;;;;;5031792;28;20024;-46
2023/06/22 02:10:21;;;;;;;33.85;8.15;;;;;;;;;;5032213;28;20091;-45
2023/06/22 02:12:49;;;;;;;32.22;8.13;;;;;;;;;;5031911;28;20104;-45
2023/06/22 02:15:16;;;;;;;29.40;7.70;;;;;;;;;;5032138;28;20577;-44
2023/06/22 02:17:44;;;;;;;24.88;7.28;;;;;;;;;;5031786;28;20034;-45
2023/06/22 02:20:15;;;;;;;19.15;6.35;;;;;;;;;;5045184;28;20031;-46
2023/06/22 02:22:42;;;;;;;23.35;7.28;;;;;;;;;;5031911;28;20037;-45
2023/06/22 02:25:09;;;;;;;20.83;7.07;;;;;;;;;;5042945;28;20037;-45
2023/06/22 02:27:40;;;;;;;23.08;6.75;;;;;;;;;;5033035;28;20024;-45
2023/06/22 02:30:09;;;;;;;23.92;6.63;;;;;;;;;;5034854;28;20029;-46
2023/06/22 02:32:37;;;;;;;20.33;6.38;;;;;;;;;;5050429;28;20029;-46
2023/06/22 02:35:06;;;;;;;22.13;6.65;;;;;;;;;;5051567;28;20024;-50
2023/06/22 02:37:33;;;;;;;21.33;6.32;;;;;;;;;;5051428;28;20037;-47
2023/06/22 02:40:01;;;;;;;19.80;6.18;;;;;;;;;;5051465;28;20025;-46
2023/06/22 02:42:28;;;;;;;20.73;5.63;;;;;;;;;;5050638;28;20024;-46
2023/06/22 02:44:55;;;;;;;19.25;5.82;;;;;;;;;;5050824;28;20045;-45
2023/06/22 02:47:22;;;;;;;17.73;6.40;;;;;;;;;;5050939;28;20037;-47
2023/06/22 02:49:50;;;;;;;16.95;5.53;;;;;;;;;;5050696;28;20056;-46
2023/06/22 02:52:17;;;;;;;20.23;6.05;;;;;;;;;;5050989;28;20048;-45
2023/06/22 02:54:45;;;;;;;21.90;5.78;;;;;;;;;;5050952;28;20029;-48
2023/06/22 02:57:13;;;;;;;16.23;5.50;;;;;;;;;;5048319;28;20501;-46
2023/06/22 02:59:41;;;;;;;16.55;5.70;;;;;;;;;;5050810;28;20115;-45
2023/06/22 03:02:11;;;;;;;16.63;5.22;;;;;;;;;;5050749;28;20463;-48
2023/06/22 03:04:38;;;;;;;17.95;5.40;;;;;;;;;;5050506;28;20033;-48
2023/06/22 03:07:05;;;;;;;11.02;4.35;;;;;;;;;;5050752;28;20075;-45
2023/06/22 03:09:33;;;;;;;14.75;5.68;;;;;;;;;;5050732;28;20032;-47
2023/06/22 03:12:01;;;;;;;14.10;4.93;;;;;;;;;;5050669;28;20024;-46
2023/06/22 03:14:29;;;;;;;11.70;4.43;;;;;;;;;;5050621;28;20538;-46
2023/06/22 03:17:02;;;;;;;17.08;4.82;;;;;;;;;;5051215;28;20013;-46
2023/06/22 03:19:31;;;;;;;13.10;4.53;;;;;;;;;;5052821;28;20102;-46
2023/06/22 03:21:58;;;;;;;12.10;4.35;;;;;;;;;;5055337;28;20467;-46
2023/06/22 03:24:29;;;;;;;13.35;3.92;;;;;;;;;;5055458;28;20033;-46
2023/06/22 03:26:56;;;;;;;11.55;4.30;;;;;;;;;;5055116;28;20025;-45
2023/06/22 03:29:25;;;;;;;9.85;4.07;;;;;;;;;;5055188;28;20032;-46
2023/06/22 03:31:52;;;;;;;9.77;3.92;;;;;;;;;;5054975;28;20544;-45
2023/06/22 03:34:19;;;;;;;13.55;4.30;;;;;;;;;;5055242;28;20025;-45
2023/06/22 03:36:46;;;;;;;13.65;4.35;;;;;;;;;;5054996;28;20045;-45
2023/06/22 03:39:13;;;;;;;12.25;4.35;;;;;;;;;;5055118;28;20025;-46
2023/06/22 03:41:40;;;;;;;10.35;3.88;;;;;;;;;;5054954;28;20021;-46
2023/06/22 03:44:12;;;;;;;9.18;3.80;;;;;;;;;;5054546;28;20115;-45
2023/06/22 03:46:39;;;;;;;11.70;3.37;;;;;;;;;;5054910;28;20157;-45
2023/06/22 03:49:06;;;;;;;7.70;3.58;;;;;;;;;;5054858;28;20263;-45
2023/06/22 03:51:34;;;;;;;9.02;3.35;;;;;;;;;;5054819;28;20048;-46
2023/06/22 03:54:01;;;;;;;9.13;3.47;;;;;;;;;;5054758;28;20049;-45
2023/06/22 03:56:28;;;;;;;9.32;3.50;;;;;;;;;;5036924;28;20425;-45
2023/06/22 03:58:55;;;;;;;8.70;3.72;;;;;;;;;;5054640;28;20090;-46
2023/06/22 04:01:22;;;;;;;8.63;3.13;;;;;;;;;;5054714;28;20017;-45
2023/06/22 04:03:49;;;;;;;10.75;3.60;;;;;;;;;;5054759;28;20020;-45
2023/06/22 04:06:16;;;;;;;7.18;3.08;;;;;;;;;;5054724;28;20112;-47
2023/06/22 04:08:44;;;;;;;7.03;3.30;;;;;;;;;;5054710;28;20513;-47
2023/06/22 04:11:11;;;;;;;8.32;3.50;;;;;;;;;;5054546;28;20025;-47
2023/06/22 04:13:38;;;;;;;8.80;3.20;;;;;;;;;;5054585;28;20024;-45
2023/06/22 04:16:05;;;;;;;10.40;3.47;;;;;;;;;;5054652;28;20044;-47
2023/06/22 04:18:32;;;;;;;6.32;2.90;;;;;;;;;;5054343;28;20037;-45
2023/06/22 04:20:59;;;;;;;7.32;2.95;;;;;;;;;;5054379;28;20079;-45
2023/06/22 04:23:26;;;;;;;8.38;3.50;;;;;;;;;;5054412;28;20021;-45
2023/06/22 04:25:53;;;;;;;6.70;2.78;;;;;;;;;;5054409;28;20025;-45
2023/06/22 04:28:20;;;;;;;6.65;3.13;;;;;;;;;;5054438;28;20036;-45
2023/06/22 04:30:47;;;;;;;8.77;3.50;;;;;;;;;;5054116;28;20067;-45
2023/06/22 04:33:17;;;;;;;5.45;2.60;;;;;;;;;;5054155;28;20512;-45
2023/06/22 04:35:47;;;;;;;8.13;2.92;;;;;;;;;;5054239;28;20035;-46
2023/06/22 04:38:14;;;;;;;5.00;2.55;;;;;;;;;;5054081;28;20037;-45
2023/06/22 04:40:41;;;;;;;7.00;3.05;;;;;;;;;;5054044;28;20063;-45
2023/06/22 04:43:09;;;;;;;6.20;2.80;;;;;;;;;;5054023;28;20047;-45
2023/06/22 04:45:40;;;;;;;4.47;2.78;;;;;;;;;;5053799;28;20075;-45
2023/06/22 04:48:09;;;;;;;6.72;2.65;;;;;;;;;;5054050;28;20025;-45
2023/06/22 04:50:39;;;;;;;5.47;2.70;;;;;;;;;;5054066;28;20056;-45
2023/06/22 04:53:07;;;;;;;7.70;2.92;;;;;;;;;;5053791;28;20037;-46
2023/06/22 04:55:34;;;;;;;6.13;2.50;;;;;;;;;;5053746;28;20040;-45
2023/06/22 04:58:04;;;;;;;4.72;2.50;;;;;;;;;;5053672;28;20045;-47
2023/06/22 05:00:31;;;;;;;5.85;2.72;;;;;;;;;;5053561;28;20112;-47
2023/06/22 05:02:58;;;;;;;4.68;2.40;;;;;;;;;;5053622;28;20026;-45
2023/06/22 05:05:26;;;;;;;7.32;2.70;;;;;;;;;;5053620;28;20032;-45
2023/06/22 05:07:53;;;;;;;6.93;2.60;;;;;;;;;;5053677;28;20499;-46
2023/06/22 05:10:20;;;;;;;5.55;2.38;;;;;;;;;;5053590;28;20051;-44
2023/06/22 05:12:47;;;;;;;5.43;2.33;;;;;;;;;;5053425;28;20051;-45
2023/06/22 05:15:14;;;;;;;4.60;2.30;;;;;;;;;;5053457;28;20032;-45
2023/06/22 05:17:50;;;;;;;3.65;2.08;;;;;;;;;;5053339;28;20049;-45
2023/06/22 05:20:18;;;;;;;4.60;2.40;;;;;;;;;;5053378;28;20033;-44
2023/06/22 05:22:45;;;;;;;3.65;2.10;;;;;;;;;;5052991;28;20395;-46
2023/06/22 05:25:12;;;;;;;4.78;2.30;;;;;;;;;;5053278;28;20040;-45
2023/06/22 05:27:40;;;;;;;3.50;2.10;;;;;;;;;;5053315;28;20059;-44
2023/06/22 05:30:08;;;;;;;4.78;2.40;;;;;;;;;;5053067;28;20037;-45
2023/06/22 05:32:36;;;;;;;3.80;2.20;;;;;;;;;;5053046;28;20495;-46
2023/06/22 05:35:03;;;;;;;4.60;2.40;;;;;;;;;;5052976;28;20048;-48
2023/06/22 05:37:30;;;;;;;4.60;2.50;;;;;;;;;;5052942;28;20479;-45
2023/06/22 05:39:57;;;;;;;5.88;2.47;;;;;;;;;;5053053;28;20060;-45
2023/06/22 05:42:25;;;;;;;4.25;2.00;;;;;;;;;;5052162;28;20043;-45
2023/06/22 05:44:53;;;;;;;3.78;2.30;;;;;;;;;;5052768;28;20052;-46
2023/06/22 05:47:20;;;;;;;4.63;2.30;;;;;;;;;;5052858;28;20158;-45
2023/06/22 05:49:47;;;;;;;3.60;2.10;;;;;;;;;;5052809;28;20083;-45
2023/06/22 05:52:14;;;;;;;4.22;2.40;;;;;;;;;;5052578;28;20056;-45
2023/06/22 05:54:42;;;;;;;3.95;1.80;;;;;;;;;;5052620;28;20502;-45
2023/06/22 05:57:09;;;;;;;4.57;1.85;;;;;;;;;;5052613;28;20095;-46
2023/06/22 05:59:36;;;;;;;3.00;1.77;;;;;;;;;;5052682;28;20033;-45
2023/06/22 06:02:04;;;;;;;5.85;1.90;;;;;;;;;;5051197;28;20037;-46
2023/06/22 06:04:31;;;;;;;3.47;1.98;;;;;;;;;;5052400;28;20033;-44
2023/06/22 06:06:58;;;;;;;4.25;1.83;;;;;;;;;;5052564;28;20024;-45
2023/06/22 06:09:25;;;;;;;5.50;2.00;;;;;;;;;;5052452;28;20050;-45
2023/06/22 06:11:52;;;;;;;4.45;1.92;;;;;;;;;;5052320;28;20095;-45
2023/06/22 06:14:20;;;;;;;3.63;1.80;;;;;;;;;;5052372;28;20108;-47
2023/06/22 06:16:47;;;;;;;2.25;1.50;;;;;;;;;;5052230;28;20041;-45
2023/06/22 06:19:14;;;;;;;2.85;1.80;;;;;;;;;;5052238;28;20039;-45
2023/06/22 06:21:41;;;;;;;3.22;1.65;;;;;;;;;;5052176;28;20032;-45
2023/06/22 06:24:08;;;;;;;2.65;1.52;;;;;;;;;;5051983;28;20056;-45
2023/06/22 06:26:35;;;;;;;2.63;1.50;;;;;;;;;;5052077;28;20033;-45
2023/06/22 06:29:03;;;;;;;2.85;1.40;;;;;;;;;;5052086;28;20082;-45
2023/06/22 06:31:30;;;;;;;2.80;1.60;;;;;;;;;;5052045;28;20446;-45
2023/06/22 06:33:57;;;;;;;3.30;1.80;;;;;;;;;;5052101;28;20044;-45
2023/06/22 06:36:24;;;;;;;2.28;1.60;;;;;;;;;;5051871;28;20033;-46
2023/06/22 06:38:51;;;;;;;3.45;1.83;;;;;;;;;;5051879;28;20479;-45
2023/06/22 06:41:18;;;;;;;3.17;1.73;;;;;;;;;;5051836;28;20025;-46
2023/06/22 06:43:45;;;;;;;2.10;1.50;;;;;;;;;;5051756;28;20049;-46
2023/06/22 06:46:12;;;;;;;4.35;1.58;;;;;;;;;;5051847;28;20024;-46
2023/06/22 06:48:39;;;;;;;3.38;1.73;;;;;;;;;;5051908;28;20040;-45
2023/06/22 06:51:09;;;;;;;2.00;1.42;;;;;;;;;;5051572;28;20032;-46
2023/06/22 06:53:37;;;;;;;2.30;1.30;;;;;;;;;;5051508;28;20033;-45
2023/06/22 06:56:05;;;;;;;1.83;1.20;;;;;;;;;;5051851;28;20019;-46
2023/06/22 06:58:32;;;;;;;4.05;1.50;;;;;;;;;;5051546;28;20047;-45
2023/06/22 07:00:59;;;;;;;2.47;1.42;;;;;;;;;;5051465;28;20029;-46
2023/06/22 07:03:26;;;;;;;2.08;1.20;;;;;;;;;;5051680;28;20483;-46
2023/06/22 07:05:53;;;;;;;2.22;1.10;;;;;;;;;;5051552;28;20118;-46
2023/06/22 07:08:20;;;;;;;2.25;1.40;;;;;;;;;;5051536;28;20024;-45
2023/06/22 07:10:47;;;;;;;2.72;1.65;;;;;;;;;;5051591;28;20105;-45
2023/06/22 07:13:14;;;;;;;2.85;1.20;;;;;;;;;;5051464;28;20022;-45
2023/06/22 07:15:42;;;;;;;3.75;1.55;;;;;;;;;;5051566;28;20041;-46
2023/06/22 07:18:09;;;;;;;1.98;1.20;;;;;;;;;;5051269;28;20406;-46
2023/06/22 07:20:36;;;;;;;3.80;1.30;;;;;;;;;;5051502;28;20060;-45
2023/06/22 07:23:03;;;;;;;3.58;1.45;;;;;;;;;;5051395;28;20127;-45
2023/06/22 07:25:30;;;;;;;1.63;1.40;;;;;;;;;;5051513;28;20475;-47
2023/06/22 07:28:01;;;;;;;1.67;1.15;;;;;;;;;;5051398;28;20033;-44
2023/06/22 07:30:28;;;;;;;2.03;1.30;;;;;;;;;;5051200;28;20040;-44
2023/06/22 07:32:55;;;;;;;2.25;1.33;;;;;;;;;;5051253;28;20021;-45
2023/06/22 07:35:22;;;;;;;2.28;1.20;;;;;;;;;;5051412;28;20021;-45
2023/06/22 07:37:49;;;;;;;1.50;1.27;;;;;;;;;;5051242;28;20076;-45
2023/06/22 07:40:16;;;;;;;2.47;1.30;;;;;;;;;;5051225;28;20029;-45
2023/06/22 07:42:43;;;;;;;2.55;1.35;;;;;;;;;;5050999;28;20017;-47
2023/06/22 07:45:10;;;;;;;1.80;1.10;;;;;;;;;;5050882;28;20415;-45
2023/06/22 07:47:37;;;;;;;2.90;1.20;;;;;;;;;;5051255;28;20025;-45
2023/06/22 07:50:04;;;;;;;2.53;1.50;;;;;;;;;;5051079;28;20390;-46
2023/06/22 07:52:31;;;;;;;2.42;1.10;;;;;;;;;;5051184;28;20040;-46
2023/06/22 07:54:59;;;;;;;2.60;1.35;;;;;;;;;;5051136;28;20479;-49
2023/06/22 07:57:33;;;;;;;2.33;1.20;;;;;;;;;;5051122;28;20037;-50
2023/06/22 08:00:15;;;;;;;1.98;1.20;;;;;;;;;;5050972;28;20032;-45
2023/06/22 08:02:42;;;;;;;;;;;;;;;;;;5051334;28;20033;-45
2023/06/22 08:05:09;;;;;;;1.50;1.20;;;;;;;;;;5052343;28;19908;-45
2023/06/22 08:07:37;;;;;;;1.80;1.00;;;;;;;;;;5054712;28;20040;-46
2023/06/22 08:10:05;;;;;;;1.92;1.20;;;;;;;;;;5054815;28;20070;-47
2023/06/22 08:12:33;;;;;;;1.80;1.20;;;;;;;;;;5054718;28;20079;-46
2023/06/22 08:15:00;;;;;;;1.70;0.90;;;;;;;;;;5054591;28;20423;-45
2023/06/22 08:17:27;;;;;;;2.63;1.17;;;;;;;;;;5036620;28;20048;-45
2023/06/22 08:19:54;;;;;;;1.83;1.30;;;;;;;;;;5054324;28;20512;-45
2023/06/22 08:22:21;;;;;;;2.25;1.20;;;;;;;;;;5054408;28;20025;-45
2023/06/22 08:24:48;;;;;;;2.20;1.10;;;;;;;;;;5029316;28;20033;-45
2023/06/22 08:27:16;;;;;;;1.30;1.10;;;;;;;;;;5014753;28;20037;-46
2023/06/22 08:29:45;;;;;;;2.92;1.30;;;;;;;;;;5014564;28;20034;-47
2023/06/22 08:32:12;;;;;;;1.50;1.10;;;;;;;;;;5014394;28;20113;-45
2023/06/22 08:34:42;;;;;;;1.17;1.00;;;;;;;;;;5014701;28;20030;-46
2023/06/22 08:37:11;;;;;;;1.83;0.98;;;;;;;;;;5014390;28;20030;-45
2023/06/22 08:39:39;;;;;;;1.83;1.10;;;;;;;;;;5014501;28;20029;-45
2023/06/22 08:42:06;;;;;;;1.23;1.00;;;;;;;;;;5014220;28;20484;-44
2023/06/22 08:44:33;;;;;;;1.60;1.20;;;;;;;;;;5014014;28;20054;-46
2023/06/22 08:47:00;;;;;;;2.78;1.30;;;;;;;;;;5014459;28;20530;-45
2023/06/22 08:49:27;;;;;;;1.83;1.10;;;;;;;;;;5014337;28;20030;-45
2023/06/22 08:51:55;;;;;;;1.73;1.10;;;;;;;;;;5014119;28;20031;-46
2023/06/22 08:54:23;;;;;;;2.50;1.23;;;;;;;;;;5014307;28;20041;-46
2023/06/22 08:56:49;;;;;;;1.33;1.10;;;;;;;;;;5014237;28;20022;-47
2023/06/22 08:59:16;;;;;;;4.05;1.27;;;;;;;;;;5013993;28;20046;-45
2023/06/22 09:01:48;;;;;;;1.48;1.02;;;;;;;;;;5014073;28;20026;-45
2023/06/22 09:04:15;;;;;;;2.28;1.33;;;;;;;;;;5014815;28;20034;-45
2023/06/22 09:06:46;;;;;;;1.75;1.30;;;;;;;;;;5033553;28;20526;-45
2023/06/22 09:09:16;;;;;;;1.20;1.10;;;;;;;;;;5033531;28;20100;-45
2023/06/22 09:11:43;;;;;;;1.48;1.20;;;;;;;;;;5033690;28;20082;-46
2023/06/22 09:14:10;;;;;;;1.52;1.42;;;;;;;;;;5030331;28;20017;-45
2023/06/22 09:16:37;;;;;;;1.67;1.20;;;;;;;;;;5032003;28;20034;-45
2023/06/22 09:19:04;;;;;;;1.83;1.10;;;;;;;;;;5030738;28;20566;-46
2023/06/22 09:21:31;;;;;;;1.60;1.42;;;;;;;;;;5032926;28;20037;-44
2023/06/22 09:23:58;;;;;;;2.53;1.55;;;;;;;;;;5032850;28;20029;-45
2023/06/22 09:26:25;;;;;;;2.72;1.33;;;;;;;;;;5032791;28;20139;-44
2023/06/22 09:28:52;;;;;;;5.03;1.40;;;;;;;;;;5029907;28;20511;-44
2023/06/22 09:31:25;;;;;;;2.15;1.42;;;;;;;;;;5026843;28;20029;-44
2023/06/22 09:33:55;;;;;;;4.13;1.33;;;;;;;;;;5032481;28;20033;-44
2023/06/22 09:36:22;;;;;;;2.15;1.20;;;;;;;;;;5012541;28;20029;-47
2023/06/22 09:38:58;;;;;;;4.32;1.88;;;;;;;;;;5023726;28;20480;-45
2023/06/22 09:41:25;;;;;;;10.55;1.73;;;;;;;;;;5029185;28;20116;-46
2023/06/22 09:43:53;;;;;;;4.25;1.80;;;;;;;;;;5032857;28;20060;-46
2023/06/22 09:46:21;;;;;;;4.53;1.80;;;;;;;;;;5033043;28;20554;-46
2023/06/22 09:48:51;;;;;;;3.65;1.70;;;;;;;;;;5032646;28;20498;-45
2023/06/22 09:51:19;;;;;;;5.95;1.67;;;;;;;;;;5032823;28;20032;-45
2023/06/22 09:53:46;;;;;;;4.60;1.80;;;;;;;;;;5032709;28;20038;-45
2023/06/22 09:56:16;;;;;;;6.45;1.58;;;;;;;;;;5032784;28;20036;-44
2023/06/22 09:58:44;;;;;;;4.55;1.80;;;;;;;;;;5032586;28;20049;-45
2023/06/22 10:01:11;;;;;;;6.57;1.75;;;;;;;;;;5032760;28;20026;-45
2023/06/22 10:03:38;;;;;;;4.22;1.50;;;;;;;;;;5026611;28;20487;-47
2023/06/22 10:06:05;;;;;;;4.90;1.70;;;;;;;;;;5024959;28;20029;-48
2023/06/22 10:08:32;;;;;;;7.30;1.60;;;;;;;;;;5029007;28;20406;-47
2023/06/22 10:10:59;;;;;;;6.82;1.63;;;;;;;;;;5027396;28;20112;-50
2023/06/22 10:13:26;;;;;;;6.53;1.60;;;;;;;;;;5012556;28;20705;-50
2023/06/22 10:15:54;;;;;;;3.08;1.70;;;;;;;;;;5009704;28;20113;-47
2023/06/22 10:18:21;;;;;;;5.00;1.65;;;;;;;;;;5012533;28;20045;-49
2023/06/22 10:20:52;;;;;;;3.38;1.70;;;;;;;;;;5011769;28;20476;-54
2023/06/22 10:23:22;;;;;;;4.28;1.90;;;;;;;;;;5030303;28;20079;-53
2023/06/22 10:25:49;;;;;;;4.25;1.75;;;;;;;;;;5027712;28;20033;-50
2023/06/22 10:28:16;;;;;;;11.07;1.90;;;;;;;;;;5029339;28;20032;-45
2023/06/22 10:30:43;;;;;;;7.97;1.70;;;;;;;;;;5030523;28;20029;-45
2023/06/22 10:33:10;;;;;;;3.35;2.33;;;;;;;;;;5031388;28;20112;-44
2023/06/22 10:35:37;;;;;;;3.35;1.85;;;;;;;;;;5029230;28;20061;-46
2023/06/22 10:38:05;;;;;;;4.70;1.80;;;;;;;;;;5026937;28;20045;-48
2023/06/22 10:40:32;;;;;;;2.75;1.83;;;;;;;;;;5031116;28;20030;-55
2023/06/22 10:42:59;;;;;;;4.38;1.88;;;;;;;;;;5030915;28;20017;-54
2023/06/22 10:45:27;;;;;;;2.03;1.50;;;;;;;;;;5028267;28;20399;-46
2023/06/22 10:47:54;;;;;;;2.50;1.60;;;;;;;;;;5030425;28;20442;-47
2023/06/22 10:50:23;;;;;;;3.03;2.00;;;;;;;;;;5008513;28;20029;-47
2023/06/22 10:52:50;;;;;;;4.82;2.05;;;;;;;;;;5030667;28;20407;-44
2023/06/22 10:55:17;;;;;;;2.58;1.67;;;;;;;;;;5028519;28;20454;-45
2023/06/22 10:57:46;;;;;;;3.40;1.70;;;;;;;;;;4990033;28;20495;-46
2023/06/22 11:00:15;;;;;;;3.60;1.77;;;;;;;;;;5011316;28;20044;-47
2023/06/22 11:02:42;;;;;;;6.53;1.70;;;;;;;;;;5024160;28;20045;-45
2023/06/22 11:05:09;;;;;;;15.13;2.03;;;;;;;;;;5026143;28;20083;-45
2023/06/22 11:07:36;;;;;;;4.30;1.98;;;;;;;;;;5031592;28;20037;-45
2023/06/22 11:10:03;;;;;;;2.13;1.63;;;;;;;;;;5031557;28;20071;-46
2023/06/22 11:12:30;;;;;;;2.45;1.65;;;;;;;;;;5031401;28;20112;-45
2023/06/22 11:14:57;;;;;;;2.28;1.67;;;;;;;;;;5031948;28;20025;-47
2023/06/22 11:17:24;;;;;;;1.70;1.50;;;;;;;;;;5031345;28;20025;-48
2023/06/22 11:19:51;;;;;;;2.88;1.52;;;;;;;;;;5031436;28;20467;-46
2023/06/22 11:22:18;;;;;;;4.22;1.50;;;;;;;;;;5031404;28;20028;-46
2023/06/22 11:24:45;;;;;;;1.80;1.55;;;;;;;;;;5031368;28;20049;-46
2023/06/22 11:27:12;;;;;;;2.75;1.60;;;;;;;;;;5031309;28;20048;-46
2023/06/22 11:29:39;;;;;;;2.63;1.40;;;;;;;;;;5021637;28;20029;-46
2023/06/22 11:32:07;;;;;;;3.53;1.45;;;;;;;;;;5011548;28;20034;-45
2023/06/22 11:34:34;;;;;;;2.15;1.70;;;;;;;;;;5011692;28;20030;-45
2023/06/22 11:37:02;;;;;;;3.63;1.70;;;;;;;;;;5011499;28;20037;-45
2023/06/22 11:39:29;;;;;;;1.90;1.70;;;;;;;;;;5011805;28;20069;-46
2023/06/22 11:41:56;;;;;;;1.58;1.40;;;;;;;;;;5015428;28;20117;-45
2023/06/22 11:44:23;;;;;;;2.85;1.67;;;;;;;;;;5015345;28;20050;-46
2023/06/22 11:46:50;;;;;;;2.65;1.67;;;;;;;;;;5015518;28;20062;-45
2023/06/22 11:49:17;;;;;;;3.55;1.70;;;;;;;;;;5015523;28;20088;-45
2023/06/22 11:51:44;;;;;;;2.90;1.83;;;;;;;;;;5015350;28;20026;-45
2023/06/22 11:54:11;;;;;;;2.13;1.60;;;;;;;;;;5015440;28;20045;-47
2023/06/22 11:56:38;;;;;;;1.77;1.58;;;;;;;;;;5015467;28;20247;-46
2023/06/22 11:59:05;;;;;;;1.85;1.70;;;;;;;;;;5015267;28;20026;-45
2023/06/22 12:01:33;;;;;;;2.85;1.35;;;;;;;;;;5015190;28;20096;-46
2023/06/22 12:04:00;;;;;;;2.15;1.67;;;;;;;;;;5015095;28;20029;-46
2023/06/22 12:06:27;;;;;;;14.85;2.10;;;;;;;;;;5004292;28;20030;-45
2023/06/22 12:08:54;;;;;;;7.93;1.77;;;;;;;;;;5023669;28;20047;-45
2023/06/22 12:11:21;;;;;;;6.68;1.70;;;;;;;;;;5022771;28;20034;-46
2023/06/22 12:13:47;;;;;;;2.97;1.50;;;;;;;;;;5014994;28;20466;-45
2023/06/22 12:16:14;;;;;;;1.95;1.50;;;;;;;;;;5015039;28;20586;-50
2023/06/22 12:18:41;;;;;;;3.30;1.85;;;;;;;;;;5026595;28;20421;-45
2023/06/22 12:21:08;;;;;;;1.92;1.58;;;;;;;;;;5016342;28;20059;-45
2023/06/22 12:23:35;;;;;;;2.17;1.42;;;;;;;;;;5034366;28;20033;-45
2023/06/22 12:26:02;;;;;;;2.67;1.58;;;;;;;;;;5033856;28;20400;-45
2023/06/22 12:28:29;;;;;;;2.38;1.50;;;;;;;;;;5033884;28;20803;-45
2023/06/22 12:30:56;;;;;;;2.28;1.50;;;;;;;;;;5034098;28;20061;-45
2023/06/22 12:33:23;;;;;;;3.85;1.70;;;;;;;;;;5034299;28;20040;-44
2023/06/22 12:35:50;;;;;;;2.40;1.30;;;;;;;;;;5034103;28;20033;-45
2023/06/22 12:38:17;;;;;;;2.40;1.60;;;;;;;;;;5034066;28;20044;-44
2023/06/22 12:40:46;;;;;;;6.10;1.50;;;;;;;;;;5034100;28;20029;-45
2023/06/22 12:43:14;;;;;;;2.83;1.38;;;;;;;;;;5033809;28;20041;-49
2023/06/22 12:45:40;;;;;;;5.15;1.77;;;;;;;;;;5033766;28;20107;-45
2023/06/22 12:48:08;;;;;;;3.92;1.13;;;;;;;;;;5032736;28;20085;-48
2023/06/22 12:50:35;;;;;;;3.60;1.60;;;;;;;;;;5033554;28;20056;-45
2023/06/22 12:53:04;;;;;;;2.58;1.40;;;;;;;;;;5033556;28;20120;-45
2023/06/22 12:55:31;;;;;;;2.47;1.70;;;;;;;;;;5033380;28;20408;-46
2023/06/22 12:57:58;;;;;;;2.58;1.45;;;;;;;;;;5033392;28;20038;-46
2023/06/22 13:00:25;;;;;;;1.75;1.15;;;;;;;;;;5033611;28;20036;-45
2023/06/22 13:02:52;;;;;;;2.83;1.10;;;;;;;;;;5033469;28;20035;-46
2023/06/22 13:05:19;;;;;;;3.47;1.30;;;;;;;;;;5033236;28;20396;-45
2023/06/22 13:07:46;;;;;;;1.45;1.30;;;;;;;;;;5033514;28;20029;-46
2023/06/22 13:10:13;;;;;;;1.35;1.02;;;;;;;;;;5033226;28;20021;-46
2023/06/22 13:12:41;;;;;;;3.75;1.23;;;;;;;;;;5033028;28;20483;-47
2023/06/22 13:15:08;;;;;;;4.35;1.40;;;;;;;;;;5033443;28;20033;-46
2023/06/22 13:17:35;;;;;;;5.22;1.30;;;;;;;;;;5032985;28;20034;-46
2023/06/22 13:20:04;;;;;;;2.42;1.17;;;;;;;;;;5033032;28;20079;-45
2023/06/22 13:22:33;;;;;;;3.47;1.40;;;;;;;;;;5032512;28;20041;-46
2023/06/22 13:25:00;;;;;;;2.72;1.63;;;;;;;;;;5033061;28;20376;-46
2023/06/22 13:27:27;;;;;;;3.03;1.30;;;;;;;;;;5033094;28;20426;-47
2023/06/22 13:29:54;;;;;;;6.03;1.20;;;;;;;;;;5033037;28;20466;-46
2023/06/22 13:32:21;;;;;;;2.13;1.17;;;;;;;;;;5032859;28;20445;-45
2023/06/22 13:34:48;;;;;;;2.33;1.40;;;;;;;;;;5033017;28;20033;-45
2023/06/22 13:37:15;;;;;;;5.47;1.30;;;;;;;;;;5032887;28;20026;-46
2023/06/22 13:39:42;;;;;;;7.07;1.38;;;;;;;;;;5032544;28;20041;-47
2023/06/22 13:42:10;;;;;;;3.65;1.30;;;;;;;;;;5032574;28;20037;-46
2023/06/22 13:44:36;;;;;;;4.05;1.40;;;;;;;;;;5032384;28;20049;-47
2023/06/22 13:47:04;;;;;;;2.90;1.13;;;;;;;;;;5032910;28;20030;-48
2023/06/22 13:49:31;;;;;;;2.38;1.30;;;;;;;;;;5032431;28;20033;-49
2023/06/22 13:51:59;;;;;;;3.47;1.50;;;;;;;;;;5032440;28;20040;-45
2023/06/22 13:54:25;;;;;;;2.90;1.30;;;;;;;;;;5032555;28;20037;-44
2023/06/22 13:56:53;;;;;;;4.57;1.30;;;;;;;;;;5032505;28;20120;-45
2023/06/22 13:59:20;;;;;;;8.07;1.13;;;;;;;;;;5019943;28;20503;-45
2023/06/22 14:01:48;;;;;;;6.28;1.20;;;;;;;;;;5032412;28;20494;-46
2023/06/22 14:04:15;;;;;;;5.82;1.42;;;;;;;;;;5011815;28;20048;-47
2023/06/22 14:06:42;;;;;;;4.35;1.13;;;;;;;;;;5029710;28;20036;-45
2023/06/22 14:09:09;;;;;;;4.15;1.40;;;;;;;;;;5013778;28;20527;-45
2023/06/22 14:11:37;;;;;;;3.22;1.20;;;;;;;;;;5012472;28;20037;-45
2023/06/22 14:14:04;;;;;;;3.83;1.52;;;;;;;;;;5011883;28;20132;-46
2023/06/22 14:16:31;;;;;;;2.60;1.00;;;;;;;;;;5031053;28;20543;-46
2023/06/22 14:18:58;;;;;;;5.03;1.50;;;;;;;;;;5019458;28;20076;-46
2023/06/22 14:21:26;;;;;;;2.90;1.20;;;;;;;;;;5012259;28;20025;-45
2023/06/22 14:23:53;;;;;;;2.33;1.10;;;;;;;;;;5012369;28;20476;-45
2023/06/22 14:26:20;;;;;;;3.63;1.20;;;;;;;;;;5012406;28;20025;-45
2023/06/22 14:28:49;;;;;;;5.95;1.30;;;;;;;;;;5016056;28;20036;-46
2023/06/22 14:31:17;;;;;;;3.30;1.05;;;;;;;;;;5024573;28;20155;-46
2023/06/22 14:33:46;;;;;;;3.40;1.10;;;;;;;;;;5012555;28;20026;-46
2023/06/22 14:36:14;;;;;;;5.72;1.38;;;;;;;;;;5012183;28;20048;-47
2023/06/22 14:38:41;;;;;;;1.80;0.95;;;;;;;;;;5011872;28;20403;-45
2023/06/22 14:41:08;;;;;;;2.75;1.08;;;;;;;;;;5026567;28;20120;-46
2023/06/22 14:43:36;;;;;;;4.32;1.20;;;;;;;;;;5016002;28;20060;-48